sensor_id;sensor_type;location;lat;lon;timestamp;P1;durP1;ratioP1;P2;durP2;ratioP2
74777;SDS011;63298;53.164;8.610;2022-10-04T00:03:41;4.22;;;2.53;;
74777;SDS011;63298;53.164;8.610;2022-10-04T00:05:51;5.75;;;2.47;;
74777;SDS011;63298;53.164;8.610;2022-10-04T00:08:22;6.78;;;2.78;;
74777;SDS011;63298;53.164;8.610;2022-10-04T00:16:55;2.92;;;2.08;;
74777;SDS011;63298;53.164;8.610;2022-10-04T00:19:22;6.75;;;2.40;;
74777;SDS011;63298;53.164;8.610;2022-10-04T00:24:26;5.33;;;2.13;;
74777;SDS011;63298;53.164;8.610;2022-10-04T00:35:05;7.30;;;2.10;;
74777;SDS011;63298;53.164;8.610;2022-10-04T00:37:57;2.45;;;1.60;;
74777;SDS011;63298;53.164;8.610;2022-10-04T00:40:36;5.18;;;2.17;;
74777;SDS011;63298;53.164;8.610;2022-10-04T00:43:15;4.50;;;1.90;;
74777;SDS011;63298;53.164;8.610;2022-10-04T00:45:48;5.18;;;2.00;;
74777;SDS011;63298;53.164;8.610;2022-10-04T00:59:51;2.05;;;1.80;;
74777;SDS011;63298;53.164;8.610;2022-10-04T01:02:23;5.80;;;1.90;;
74777;SDS011;63298;53.164;8.610;2022-10-04T01:05:07;5.28;;;2.15;;
74777;SDS011;63298;53.164;8.610;2022-10-04T01:07:42;4.78;;;2.00;;
74777;SDS011;63298;53.164;8.610;2022-10-04T01:20:50;6.07;;;2.27;;
74777;SDS011;63298;53.164;8.610;2022-10-04T01:23:39;3.95;;;2.08;;
74777;SDS011;63298;53.164;8.610;2022-10-04T01:28:50;4.65;;;2.00;;
74777;SDS011;63298;53.164;8.610;2022-10-04T01:31:15;5.97;;;2.05;;
74777;SDS011;63298;53.164;8.610;2022-10-04T01:33:41;5.15;;;1.73;;
74777;SDS011;63298;53.164;8.610;2022-10-04T01:36:07;3.72;;;1.98;;
74777;SDS011;63298;53.164;8.610;2022-10-04T01:38:33;6.25;;;2.53;;
74777;SDS011;63298;53.164;8.610;2022-10-04T01:40:58;4.18;;;2.00;;
74777;SDS011;63298;53.164;8.610;2022-10-04T01:43:28;3.38;;;1.77;;
74777;SDS011;63298;53.164;8.610;2022-10-04T01:46:01;2.42;;;1.70;;
74777;SDS011;63298;53.164;8.610;2022-10-04T01:48:35;2.88;;;1.90;;
74777;SDS011;63298;53.164;8.610;2022-10-04T01:51:07;4.03;;;1.90;;
74777;SDS011;63298;53.164;8.610;2022-10-04T01:53:53;3.83;;;1.90;;
74777;SDS011;63298;53.164;8.610;2022-10-04T01:56:25;5.05;;;1.70;;
74777;SDS011;63298;53.164;8.610;2022-10-04T01:58:57;5.35;;;2.15;;
74777;SDS011;63298;53.164;8.610;2022-10-04T02:01:28;3.03;;;1.88;;
74777;SDS011;63298;53.164;8.610;2022-10-04T02:04:03;3.60;;;2.13;;
74777;SDS011;63298;53.164;8.610;2022-10-04T02:06:35;6.18;;;2.00;;
74777;SDS011;63298;53.164;8.610;2022-10-04T02:09:07;3.38;;;1.73;;
74777;SDS011;63298;53.164;8.610;2022-10-04T02:11:39;4.70;;;1.95;;
74777;SDS011;63298;53.164;8.610;2022-10-04T02:14:11;4.75;;;1.73;;
74777;SDS011;63298;53.164;8.610;2022-10-04T02:16:44;2.38;;;1.70;;
74777;SDS011;63298;53.164;8.610;2022-10-04T02:19:12;3.30;;;1.80;;
74777;SDS011;63298;53.164;8.610;2022-10-04T02:21:39;2.03;;;1.67;;
74777;SDS011;63298;53.164;8.610;2022-10-04T02:24:06;2.83;;;1.80;;
74777;SDS011;63298;53.164;8.610;2022-10-04T02:26:33;3.45;;;1.90;;
74777;SDS011;63298;53.164;8.610;2022-10-04T02:28:59;6.13;;;2.25;;
74777;SDS011;63298;53.164;8.610;2022-10-04T02:31:24;6.00;;;2.50;;
74777;SDS011;63298;53.164;8.610;2022-10-04T02:33:52;11.73;;;2.08;;
74777;SDS011;63298;53.164;8.610;2022-10-04T02:36:23;1.98;;;1.60;;
74777;SDS011;63298;53.164;8.610;2022-10-04T02:38:59;7.07;;;1.80;;
74777;SDS011;63298;53.164;8.610;2022-10-04T02:41:27;7.05;;;2.20;;
74777;SDS011;63298;53.164;8.610;2022-10-04T02:43:57;4.95;;;2.35;;
74777;SDS011;63298;53.164;8.610;2022-10-04T02:46:35;6.53;;;2.05;;
74777;SDS011;63298;53.164;8.610;2022-10-04T02:49:05;5.97;;;2.35;;
74777;SDS011;63298;53.164;8.610;2022-10-04T02:51:42;4.47;;;2.22;;
74777;SDS011;63298;53.164;8.610;2022-10-04T02:56:53;7.35;;;2.10;;
74777;SDS011;63298;53.164;8.610;2022-10-04T02:59:20;5.22;;;2.30;;
74777;SDS011;63298;53.164;8.610;2022-10-04T03:01:54;3.50;;;2.20;;
74777;SDS011;63298;53.164;8.610;2022-10-04T03:04:22;1.92;;;1.77;;
74777;SDS011;63298;53.164;8.610;2022-10-04T03:06:53;4.07;;;2.10;;
74777;SDS011;63298;53.164;8.610;2022-10-04T03:09:22;3.92;;;1.95;;
74777;SDS011;63298;53.164;8.610;2022-10-04T03:11:49;3.92;;;2.17;;
74777;SDS011;63298;53.164;8.610;2022-10-04T03:14:20;4.25;;;1.90;;
74777;SDS011;63298;53.164;8.610;2022-10-04T03:16:49;6.18;;;2.38;;
74777;SDS011;63298;53.164;8.610;2022-10-04T03:19:17;3.42;;;2.40;;
74777;SDS011;63298;53.164;8.610;2022-10-04T03:21:46;7.55;;;2.35;;
74777;SDS011;63298;53.164;8.610;2022-10-04T03:24:19;2.63;;;2.17;;
74777;SDS011;63298;53.164;8.610;2022-10-04T03:26:57;5.40;;;2.33;;
74777;SDS011;63298;53.164;8.610;2022-10-04T03:29:27;5.32;;;2.13;;
74777;SDS011;63298;53.164;8.610;2022-10-04T03:31:55;4.60;;;3.92;;
74777;SDS011;63298;53.164;8.610;2022-10-04T03:34:25;11.70;;;5.20;;
74777;SDS011;63298;53.164;8.610;2022-10-04T03:36:55;6.22;;;3.00;;
74777;SDS011;63298;53.164;8.610;2022-10-04T03:39:34;3.15;;;2.78;;
74777;SDS011;63298;53.164;8.610;2022-10-04T03:42:03;4.35;;;2.80;;
74777;SDS011;63298;53.164;8.610;2022-10-04T03:44:32;4.38;;;2.67;;
74777;SDS011;63298;53.164;8.610;2022-10-04T03:46:58;8.27;;;3.15;;
74777;SDS011;63298;53.164;8.610;2022-10-04T03:49:29;6.88;;;2.55;;
74777;SDS011;63298;53.164;8.610;2022-10-04T03:51:57;4.32;;;2.05;;
74777;SDS011;63298;53.164;8.610;2022-10-04T03:54:27;6.00;;;3.13;;
74777;SDS011;63298;53.164;8.610;2022-10-04T03:56:54;4.15;;;2.30;;
74777;SDS011;63298;53.164;8.610;2022-10-04T03:59:22;6.15;;;2.33;;
74777;SDS011;63298;53.164;8.610;2022-10-04T04:02:03;3.50;;;2.15;;
74777;SDS011;63298;53.164;8.610;2022-10-04T04:04:40;2.08;;;1.98;;
74777;SDS011;63298;53.164;8.610;2022-10-04T04:07:13;2.80;;;2.25;;
74777;SDS011;63298;53.164;8.610;2022-10-04T04:10:08;3.85;;;2.10;;
74777;SDS011;63298;53.164;8.610;2022-10-04T04:15:40;8.00;;;3.25;;
74777;SDS011;63298;53.164;8.610;2022-10-04T04:18:09;5.40;;;4.00;;
74777;SDS011;63298;53.164;8.610;2022-10-04T04:20:43;9.82;;;4.40;;
74777;SDS011;63298;53.164;8.610;2022-10-04T04:25:38;5.20;;;2.88;;
74777;SDS011;63298;53.164;8.610;2022-10-04T04:30:56;8.80;;;2.92;;
74777;SDS011;63298;53.164;8.610;2022-10-04T04:33:30;4.13;;;2.47;;
74777;SDS011;63298;53.164;8.610;2022-10-04T04:36:05;7.03;;;2.33;;
74777;SDS011;63298;53.164;8.610;2022-10-04T04:38:35;5.63;;;2.65;;
74777;SDS011;63298;53.164;8.610;2022-10-04T04:41:07;4.82;;;2.38;;
74777;SDS011;63298;53.164;8.610;2022-10-04T04:43:34;5.97;;;2.88;;
74777;SDS011;63298;53.164;8.610;2022-10-04T04:46:07;3.63;;;2.90;;
74777;SDS011;63298;53.164;8.610;2022-10-04T04:48:33;6.20;;;2.85;;
74777;SDS011;63298;53.164;8.610;2022-10-04T04:51:00;6.53;;;3.30;;
74777;SDS011;63298;53.164;8.610;2022-10-04T04:53:26;6.35;;;3.00;;
74777;SDS011;63298;53.164;8.610;2022-10-04T04:55:54;3.30;;;2.92;;
74777;SDS011;63298;53.164;8.610;2022-10-04T04:58:23;4.30;;;2.75;;
74777;SDS011;63298;53.164;8.610;2022-10-04T05:03:40;5.72;;;3.17;;
74777;SDS011;63298;53.164;8.610;2022-10-04T05:06:18;8.02;;;3.00;;
74777;SDS011;63298;53.164;8.610;2022-10-04T05:08:51;3.50;;;2.83;;
74777;SDS011;63298;53.164;8.610;2022-10-04T05:11:17;5.70;;;3.47;;
74777;SDS011;63298;53.164;8.610;2022-10-04T05:13:58;14.57;;;2.95;;
74777;SDS011;63298;53.164;8.610;2022-10-04T05:16:49;5.18;;;3.00;;
74777;SDS011;63298;53.164;8.610;2022-10-04T05:19:18;6.88;;;2.85;;
74777;SDS011;63298;53.164;8.610;2022-10-04T05:21:51;11.05;;;3.10;;
74777;SDS011;63298;53.164;8.610;2022-10-04T05:26:43;8.02;;;3.53;;
74777;SDS011;63298;53.164;8.610;2022-10-04T05:29:36;4.10;;;2.70;;
74777;SDS011;63298;53.164;8.610;2022-10-04T05:35:16;4.30;;;2.60;;
74777;SDS011;63298;53.164;8.610;2022-10-04T05:48:38;5.75;;;3.20;;
74777;SDS011;63298;53.164;8.610;2022-10-04T05:54:13;4.32;;;3.28;;
74777;SDS011;63298;53.164;8.610;2022-10-04T06:02:01;4.40;;;3.37;;
74777;SDS011;63298;53.164;8.610;2022-10-04T06:04:41;9.02;;;3.67;;
74777;SDS011;63298;53.164;8.610;2022-10-04T06:07:13;10.50;;;3.97;;
74777;SDS011;63298;53.164;8.610;2022-10-04T06:09:57;10.13;;;3.70;;
74777;SDS011;63298;53.164;8.610;2022-10-04T06:18:06;7.80;;;4.20;;
74777;SDS011;63298;53.164;8.610;2022-10-04T06:23:31;9.38;;;4.10;;
74777;SDS011;63298;53.164;8.610;2022-10-04T06:26:09;6.82;;;3.65;;
74777;SDS011;63298;53.164;8.610;2022-10-04T06:28:39;9.02;;;3.88;;
74777;SDS011;63298;53.164;8.610;2022-10-04T06:31:19;7.10;;;3.55;;
74777;SDS011;63298;53.164;8.610;2022-10-04T06:42:37;13.13;;;4.57;;
74777;SDS011;63298;53.164;8.610;2022-10-04T06:51:08;11.83;;;3.87;;
74777;SDS011;63298;53.164;8.610;2022-10-04T06:56:41;6.50;;;4.50;;
74777;SDS011;63298;53.164;8.610;2022-10-04T07:01:51;12.77;;;4.75;;
74777;SDS011;63298;53.164;8.610;2022-10-04T07:04:24;8.52;;;4.75;;
74777;SDS011;63298;53.164;8.610;2022-10-04T07:09:30;9.88;;;4.68;;
74777;SDS011;63298;53.164;8.610;2022-10-04T07:12:03;11.52;;;5.80;;
74777;SDS011;63298;53.164;8.610;2022-10-04T07:14:33;13.68;;;6.18;;
74777;SDS011;63298;53.164;8.610;2022-10-04T07:17:03;16.40;;;5.68;;
74777;SDS011;63298;53.164;8.610;2022-10-04T07:19:38;12.23;;;5.82;;
74777;SDS011;63298;53.164;8.610;2022-10-04T07:27:45;9.85;;;5.20;;
74777;SDS011;63298;53.164;8.610;2022-10-04T07:30:17;13.13;;;5.93;;
74777;SDS011;63298;53.164;8.610;2022-10-04T07:32:44;10.18;;;6.05;;
74777;SDS011;63298;53.164;8.610;2022-10-04T07:35:25;16.65;;;5.65;;
74777;SDS011;63298;53.164;8.610;2022-10-04T07:38:13;7.18;;;4.75;;
74777;SDS011;63298;53.164;8.610;2022-10-04T07:40:53;11.85;;;5.30;;
74777;SDS011;63298;53.164;8.610;2022-10-04T07:43:27;11.15;;;4.85;;
74777;SDS011;63298;53.164;8.610;2022-10-04T07:46:00;14.57;;;4.95;;
74777;SDS011;63298;53.164;8.610;2022-10-04T07:48:30;12.10;;;5.57;;
74777;SDS011;63298;53.164;8.610;2022-10-04T07:53:31;18.63;;;6.35;;
74777;SDS011;63298;53.164;8.610;2022-10-04T07:56:14;8.55;;;4.53;;
74777;SDS011;63298;53.164;8.610;2022-10-04T07:58:51;7.88;;;4.47;;
74777;SDS011;63298;53.164;8.610;2022-10-04T08:04:46;5.82;;;3.80;;
74777;SDS011;63298;53.164;8.610;2022-10-04T08:07:25;8.48;;;4.00;;
74777;SDS011;63298;53.164;8.610;2022-10-04T08:12:50;10.32;;;4.13;;
74777;SDS011;63298;53.164;8.610;2022-10-04T08:18:37;8.65;;;3.38;;
74777;SDS011;63298;53.164;8.610;2022-10-04T08:21:13;13.38;;;3.95;;
74777;SDS011;63298;53.164;8.610;2022-10-04T08:26:36;9.25;;;3.72;;
74777;SDS011;63298;53.164;8.610;2022-10-04T08:43:06;5.55;;;3.08;;
74777;SDS011;63298;53.164;8.610;2022-10-04T09:17:29;8.20;;;2.70;;
74777;SDS011;63298;53.164;8.610;2022-10-04T09:55:59;11.77;;;3.45;;
74777;SDS011;63298;53.164;8.610;2022-10-04T09:59:01;10.88;;;3.38;;
74777;SDS011;63298;53.164;8.610;2022-10-04T10:01:56;6.68;;;3.00;;
74777;SDS011;63298;53.164;8.610;2022-10-04T10:21:16;5.35;;;2.70;;
74777;SDS011;63298;53.164;8.610;2022-10-04T10:26:48;7.93;;;2.45;;
74777;SDS011;63298;53.164;8.610;2022-10-04T10:41:02;8.18;;;2.83;;
74777;SDS011;63298;53.164;8.610;2022-10-04T10:49:30;13.43;;;3.33;;
74777;SDS011;63298;53.164;8.610;2022-10-04T11:06:12;5.32;;;2.88;;
74777;SDS011;63298;53.164;8.610;2022-10-04T11:16:57;4.80;;;2.00;;
74777;SDS011;63298;53.164;8.610;2022-10-04T11:33:05;8.02;;;2.78;;
74777;SDS011;63298;53.164;8.610;2022-10-04T11:36:11;6.40;;;2.42;;
74777;SDS011;63298;53.164;8.610;2022-10-04T11:39:04;4.43;;;1.85;;
74777;SDS011;63298;53.164;8.610;2022-10-04T11:53:18;3.20;;;1.80;;
74777;SDS011;63298;53.164;8.610;2022-10-04T11:55:58;5.18;;;2.00;;
74777;SDS011;63298;53.164;8.610;2022-10-04T11:58:37;6.90;;;1.85;;
74777;SDS011;63298;53.164;8.610;2022-10-04T12:01:16;6.65;;;2.20;;
74777;SDS011;63298;53.164;8.610;2022-10-04T12:12:39;5.45;;;2.30;;
74777;SDS011;63298;53.164;8.610;2022-10-04T12:23:57;6.72;;;2.08;;
74777;SDS011;63298;53.164;8.610;2022-10-04T12:26:48;5.45;;;1.77;;
74777;SDS011;63298;53.164;8.610;2022-10-04T12:35:22;5.05;;;1.75;;
74777;SDS011;63298;53.164;8.610;2022-10-04T12:38:26;4.78;;;1.83;;
74777;SDS011;63298;53.164;8.610;2022-10-04T12:43:34;6.72;;;1.70;;
74777;SDS011;63298;53.164;8.610;2022-10-04T12:46:22;8.23;;;1.88;;
74777;SDS011;63298;53.164;8.610;2022-10-04T12:48:55;8.20;;;2.03;;
74777;SDS011;63298;53.164;8.610;2022-10-04T13:00:34;2.75;;;1.83;;
74777;SDS011;63298;53.164;8.610;2022-10-04T13:03:21;4.07;;;2.10;;
74777;SDS011;63298;53.164;8.610;2022-10-04T13:06:14;5.05;;;2.08;;
74777;SDS011;63298;53.164;8.610;2022-10-04T13:15:17;5.18;;;1.95;;
74777;SDS011;63298;53.164;8.610;2022-10-04T13:18:17;5.60;;;1.98;;
74777;SDS011;63298;53.164;8.610;2022-10-04T13:20:57;6.60;;;2.10;;
74777;SDS011;63298;53.164;8.610;2022-10-04T13:26:29;6.30;;;2.00;;
74777;SDS011;63298;53.164;8.610;2022-10-04T13:29:22;12.25;;;2.22;;
74777;SDS011;63298;53.164;8.610;2022-10-04T13:31:58;4.63;;;2.30;;
74777;SDS011;63298;53.164;8.610;2022-10-04T13:37:49;15.93;;;5.20;;
74777;SDS011;63298;53.164;8.610;2022-10-04T13:41:06;4.93;;;1.92;;
74777;SDS011;63298;53.164;8.610;2022-10-04T13:49:47;6.88;;;2.33;;
74777;SDS011;63298;53.164;8.610;2022-10-04T13:56:02;4.30;;;1.60;;
74777;SDS011;63298;53.164;8.610;2022-10-04T13:58:55;4.65;;;1.80;;
74777;SDS011;63298;53.164;8.610;2022-10-04T14:04:45;4.55;;;1.42;;
74777;SDS011;63298;53.164;8.610;2022-10-04T14:54:57;4.28;;;1.70;;
74777;SDS011;63298;53.164;8.610;2022-10-04T14:57:47;3.30;;;1.63;;
74777;SDS011;63298;53.164;8.610;2022-10-04T15:00:32;9.40;;;1.80;;
74777;SDS011;63298;53.164;8.610;2022-10-04T15:06:03;2.45;;;1.67;;
74777;SDS011;63298;53.164;8.610;2022-10-04T15:11:16;5.38;;;1.63;;
74777;SDS011;63298;53.164;8.610;2022-10-04T15:13:51;4.53;;;1.92;;
74777;SDS011;63298;53.164;8.610;2022-10-04T15:18:53;3.58;;;1.38;;
74777;SDS011;63298;53.164;8.610;2022-10-04T15:29:36;1.92;;;1.23;;
74777;SDS011;63298;53.164;8.610;2022-10-04T15:34:59;4.95;;;1.73;;
74777;SDS011;63298;53.164;8.610;2022-10-04T15:37:42;4.28;;;1.73;;
74777;SDS011;63298;53.164;8.610;2022-10-04T15:40:25;5.90;;;1.67;;
74777;SDS011;63298;53.164;8.610;2022-10-04T15:45:58;4.68;;;1.98;;
74777;SDS011;63298;53.164;8.610;2022-10-04T15:56:59;1.98;;;1.60;;
74777;SDS011;63298;53.164;8.610;2022-10-04T15:59:50;5.65;;;1.77;;
74777;SDS011;63298;53.164;8.610;2022-10-04T16:02:24;4.72;;;2.25;;
74777;SDS011;63298;53.164;8.610;2022-10-04T16:05:02;5.40;;;1.63;;
74777;SDS011;63298;53.164;8.610;2022-10-04T16:12:54;3.40;;;2.30;;
74777;SDS011;63298;53.164;8.610;2022-10-04T16:20:52;9.18;;;3.50;;
74777;SDS011;63298;53.164;8.610;2022-10-04T16:23:27;10.82;;;2.90;;
74777;SDS011;63298;53.164;8.610;2022-10-04T16:26:03;5.97;;;2.58;;
74777;SDS011;63298;53.164;8.610;2022-10-04T16:28:41;5.13;;;2.22;;
74777;SDS011;63298;53.164;8.610;2022-10-04T16:31:12;5.35;;;2.50;;
74777;SDS011;63298;53.164;8.610;2022-10-04T16:33:51;6.60;;;2.28;;
74777;SDS011;63298;53.164;8.610;2022-10-04T16:39:32;5.85;;;2.00;;
74777;SDS011;63298;53.164;8.610;2022-10-04T16:42:03;17.52;;;9.40;;
74777;SDS011;63298;53.164;8.610;2022-10-04T16:44:35;14.98;;;7.43;;
74777;SDS011;63298;53.164;8.610;2022-10-04T16:47:20;7.25;;;3.63;;
74777;SDS011;63298;53.164;8.610;2022-10-04T16:49:55;6.82;;;3.10;;
74777;SDS011;63298;53.164;8.610;2022-10-04T17:00:50;5.57;;;3.50;;
74777;SDS011;63298;53.164;8.610;2022-10-04T17:06:31;5.18;;;3.05;;
74777;SDS011;63298;53.164;8.610;2022-10-04T17:17:00;13.10;;;5.95;;
74777;SDS011;63298;53.164;8.610;2022-10-04T17:19:40;10.57;;;4.97;;
74777;SDS011;63298;53.164;8.610;2022-10-04T17:28:12;9.43;;;4.72;;
74777;SDS011;63298;53.164;8.610;2022-10-04T17:31:06;9.35;;;5.18;;
74777;SDS011;63298;53.164;8.610;2022-10-04T17:36:37;6.40;;;2.70;;
74777;SDS011;63298;53.164;8.610;2022-10-04T17:44:33;7.97;;;3.15;;
74777;SDS011;63298;53.164;8.610;2022-10-04T17:47:10;6.25;;;2.20;;
74777;SDS011;63298;53.164;8.610;2022-10-04T17:52:39;4.60;;;2.42;;
74777;SDS011;63298;53.164;8.610;2022-10-04T17:55:17;6.22;;;2.55;;
74777;SDS011;63298;53.164;8.610;2022-10-04T17:57:53;4.57;;;2.60;;
74777;SDS011;63298;53.164;8.610;2022-10-04T18:00:26;7.40;;;2.40;;
74777;SDS011;63298;53.164;8.610;2022-10-04T18:03:17;5.45;;;2.50;;
74777;SDS011;63298;53.164;8.610;2022-10-04T18:05:52;7.03;;;2.70;;
74777;SDS011;63298;53.164;8.610;2022-10-04T18:11:13;2.95;;;2.50;;
74777;SDS011;63298;53.164;8.610;2022-10-04T18:14:03;8.85;;;2.58;;
74777;SDS011;63298;53.164;8.610;2022-10-04T18:19:30;7.97;;;2.60;;
74777;SDS011;63298;53.164;8.610;2022-10-04T18:22:16;5.60;;;2.40;;
74777;SDS011;63298;53.164;8.610;2022-10-04T18:24:43;7.20;;;2.88;;
74777;SDS011;63298;53.164;8.610;2022-10-04T18:27:23;7.10;;;3.33;;
74777;SDS011;63298;53.164;8.610;2022-10-04T18:35:01;9.85;;;3.60;;
74777;SDS011;63298;53.164;8.610;2022-10-04T18:37:43;5.93;;;2.95;;
74777;SDS011;63298;53.164;8.610;2022-10-04T18:42:40;7.13;;;3.13;;
74777;SDS011;63298;53.164;8.610;2022-10-04T18:45:17;8.43;;;4.07;;
74777;SDS011;63298;53.164;8.610;2022-10-04T18:47:46;12.05;;;3.08;;
74777;SDS011;63298;53.164;8.610;2022-10-04T18:55:48;4.32;;;2.97;;
74777;SDS011;63298;53.164;8.610;2022-10-04T19:00:47;7.88;;;3.30;;
74777;SDS011;63298;53.164;8.610;2022-10-04T19:04:07;4.95;;;2.78;;
74777;SDS011;63298;53.164;8.610;2022-10-04T19:06:34;9.52;;;3.33;;
74777;SDS011;63298;53.164;8.610;2022-10-04T19:09:05;8.48;;;3.25;;
74777;SDS011;63298;53.164;8.610;2022-10-04T19:11:41;9.63;;;3.33;;
74777;SDS011;63298;53.164;8.610;2022-10-04T19:14:22;7.22;;;3.08;;
74777;SDS011;63298;53.164;8.610;2022-10-04T19:16:58;8.07;;;3.22;;
74777;SDS011;63298;53.164;8.610;2022-10-04T19:19:38;7.53;;;3.50;;
74777;SDS011;63298;53.164;8.610;2022-10-04T19:22:34;10.25;;;3.65;;
74777;SDS011;63298;53.164;8.610;2022-10-04T19:28:18;9.32;;;4.30;;
74777;SDS011;63298;53.164;8.610;2022-10-04T19:41:52;11.38;;;3.80;;
74777;SDS011;63298;53.164;8.610;2022-10-04T19:55:48;6.82;;;4.00;;
74777;SDS011;63298;53.164;8.610;2022-10-04T19:58:35;9.80;;;3.70;;
74777;SDS011;63298;53.164;8.610;2022-10-04T20:01:15;12.18;;;4.40;;
74777;SDS011;63298;53.164;8.610;2022-10-04T20:03:42;6.82;;;4.40;;
74777;SDS011;63298;53.164;8.610;2022-10-04T20:06:09;7.65;;;3.92;;
74777;SDS011;63298;53.164;8.610;2022-10-04T20:11:16;12.98;;;4.82;;
74777;SDS011;63298;53.164;8.610;2022-10-04T20:13:43;11.43;;;4.10;;
74777;SDS011;63298;53.164;8.610;2022-10-04T20:16:10;8.98;;;4.38;;
74777;SDS011;63298;53.164;8.610;2022-10-04T20:21:04;8.70;;;4.10;;
74777;SDS011;63298;53.164;8.610;2022-10-04T20:29:02;10.40;;;3.88;;
74777;SDS011;63298;53.164;8.610;2022-10-04T20:33:52;10.55;;;4.35;;
74777;SDS011;63298;53.164;8.610;2022-10-04T20:43:59;8.23;;;4.00;;
74777;SDS011;63298;53.164;8.610;2022-10-04T20:46:27;8.98;;;4.00;;
74777;SDS011;63298;53.164;8.610;2022-10-04T20:49:03;10.05;;;4.85;;
74777;SDS011;63298;53.164;8.610;2022-10-04T20:51:38;9.00;;;4.95;;
74777;SDS011;63298;53.164;8.610;2022-10-04T20:54:17;9.73;;;3.88;;
74777;SDS011;63298;53.164;8.610;2022-10-04T20:56:47;9.50;;;4.60;;
74777;SDS011;63298;53.164;8.610;2022-10-04T20:59:14;10.30;;;4.70;;
74777;SDS011;63298;53.164;8.610;2022-10-04T21:01:43;13.05;;;4.97;;
74777;SDS011;63298;53.164;8.610;2022-10-04T21:04:28;12.82;;;4.85;;
74777;SDS011;63298;53.164;8.610;2022-10-04T21:06:54;14.38;;;4.75;;
74777;SDS011;63298;53.164;8.610;2022-10-04T21:09:22;9.20;;;4.00;;
74777;SDS011;63298;53.164;8.610;2022-10-04T21:11:51;11.48;;;5.20;;
74777;SDS011;63298;53.164;8.610;2022-10-04T21:16:50;8.98;;;4.32;;
74777;SDS011;63298;53.164;8.610;2022-10-04T21:21:59;6.70;;;3.85;;
74777;SDS011;63298;53.164;8.610;2022-10-04T21:24:39;10.40;;;5.28;;
74777;SDS011;63298;53.164;8.610;2022-10-04T21:27:38;9.77;;;4.40;;
74777;SDS011;63298;53.164;8.610;2022-10-04T21:30:14;9.23;;;4.90;;
74777;SDS011;63298;53.164;8.610;2022-10-04T21:32:41;9.30;;;4.15;;
74777;SDS011;63298;53.164;8.610;2022-10-04T21:35:07;7.72;;;4.05;;
74777;SDS011;63298;53.164;8.610;2022-10-04T21:37:33;6.32;;;3.97;;
74777;SDS011;63298;53.164;8.610;2022-10-04T21:40:00;6.60;;;4.40;;
74777;SDS011;63298;53.164;8.610;2022-10-04T21:42:25;12.18;;;4.82;;
74777;SDS011;63298;53.164;8.610;2022-10-04T21:44:51;11.40;;;4.60;;
74777;SDS011;63298;53.164;8.610;2022-10-04T21:47:17;8.35;;;4.10;;
74777;SDS011;63298;53.164;8.610;2022-10-04T21:49:43;10.57;;;4.05;;
74777;SDS011;63298;53.164;8.610;2022-10-04T21:52:08;9.05;;;4.35;;
74777;SDS011;63298;53.164;8.610;2022-10-04T21:54:33;8.10;;;3.75;;
74777;SDS011;63298;53.164;8.610;2022-10-04T21:56:59;12.75;;;4.22;;
74777;SDS011;63298;53.164;8.610;2022-10-04T21:59:25;10.55;;;4.53;;
74777;SDS011;63298;53.164;8.610;2022-10-04T22:01:50;5.38;;;3.55;;
74777;SDS011;63298;53.164;8.610;2022-10-04T22:04:16;7.32;;;3.90;;
74777;SDS011;63298;53.164;8.610;2022-10-04T22:06:42;10.18;;;4.00;;
74777;SDS011;63298;53.164;8.610;2022-10-04T22:09:08;4.95;;;3.42;;
74777;SDS011;63298;53.164;8.610;2022-10-04T22:11:34;7.30;;;3.95;;
74777;SDS011;63298;53.164;8.610;2022-10-04T22:13:59;9.63;;;3.65;;
74777;SDS011;63298;53.164;8.610;2022-10-04T22:16:24;13.68;;;4.53;;
74777;SDS011;63298;53.164;8.610;2022-10-04T22:18:50;4.78;;;3.55;;
74777;SDS011;63298;53.164;8.610;2022-10-04T22:21:15;8.10;;;4.10;;
74777;SDS011;63298;53.164;8.610;2022-10-04T22:23:41;10.00;;;4.03;;
74777;SDS011;63298;53.164;8.610;2022-10-04T22:26:13;6.25;;;4.15;;
74777;SDS011;63298;53.164;8.610;2022-10-04T22:28:44;9.75;;;4.22;;
74777;SDS011;63298;53.164;8.610;2022-10-04T22:31:13;10.80;;;3.92;;
74777;SDS011;63298;53.164;8.610;2022-10-04T22:33:41;9.25;;;4.18;;
74777;SDS011;63298;53.164;8.610;2022-10-04T22:38:56;8.05;;;3.90;;
74777;SDS011;63298;53.164;8.610;2022-10-04T22:41:28;7.43;;;3.92;;
74777;SDS011;63298;53.164;8.610;2022-10-04T22:43:56;8.52;;;4.00;;
74777;SDS011;63298;53.164;8.610;2022-10-04T22:46:24;12.75;;;3.95;;
74777;SDS011;63298;53.164;8.610;2022-10-04T22:48:56;8.73;;;3.88;;
74777;SDS011;63298;53.164;8.610;2022-10-04T22:51:22;8.70;;;3.95;;
74777;SDS011;63298;53.164;8.610;2022-10-04T22:53:47;7.15;;;4.10;;
74777;SDS011;63298;53.164;8.610;2022-10-04T22:56:13;9.45;;;3.97;;
74777;SDS011;63298;53.164;8.610;2022-10-04T22:58:39;7.07;;;3.88;;
74777;SDS011;63298;53.164;8.610;2022-10-04T23:01:13;7.57;;;3.72;;
74777;SDS011;63298;53.164;8.610;2022-10-04T23:03:43;12.48;;;4.28;;
74777;SDS011;63298;53.164;8.610;2022-10-04T23:06:10;7.03;;;3.75;;
74777;SDS011;63298;53.164;8.610;2022-10-04T23:08:36;6.65;;;3.60;;
74777;SDS011;63298;53.164;8.610;2022-10-04T23:11:02;7.85;;;3.45;;
74777;SDS011;63298;53.164;8.610;2022-10-04T23:13:28;5.63;;;3.97;;
74777;SDS011;63298;53.164;8.610;2022-10-04T23:15:54;5.43;;;3.63;;
74777;SDS011;63298;53.164;8.610;2022-10-04T23:18:23;6.95;;;3.90;;
74777;SDS011;63298;53.164;8.610;2022-10-04T23:20:50;6.43;;;3.75;;
74777;SDS011;63298;53.164;8.610;2022-10-04T23:23:20;6.75;;;3.97;;
74777;SDS011;63298;53.164;8.610;2022-10-04T23:25:46;9.65;;;4.07;;
74777;SDS011;63298;53.164;8.610;2022-10-04T23:28:13;6.18;;;3.95;;
74777;SDS011;63298;53.164;8.610;2022-10-04T23:30:40;8.10;;;3.70;;
74777;SDS011;63298;53.164;8.610;2022-10-04T23:33:12;9.93;;;4.32;;
74777;SDS011;63298;53.164;8.610;2022-10-04T23:35:41;4.57;;;3.38;;
74777;SDS011;63298;53.164;8.610;2022-10-04T23:38:08;10.27;;;3.47;;
74777;SDS011;63298;53.164;8.610;2022-10-04T23:40:42;7.10;;;3.75;;
74777;SDS011;63298;53.164;8.610;2022-10-04T23:43:10;6.35;;;4.20;;
74777;SDS011;63298;53.164;8.610;2022-10-04T23:45:39;6.47;;;3.90;;
74777;SDS011;63298;53.164;8.610;2022-10-04T23:48:04;7.15;;;3.75;;
74777;SDS011;63298;53.164;8.610;2022-10-04T23:50:34;8.13;;;4.25;;
74777;SDS011;63298;53.164;8.610;2022-10-04T23:53:02;8.52;;;3.60;;
74777;SDS011;63298;53.164;8.610;2022-10-04T23:55:31;10.20;;;3.38;;
74777;SDS011;63298;53.164;8.610;2022-10-04T23:58:00;11.27;;;3.95;;
